sensor_id;sensor_type;location;lat;lon;timestamp;P1;durP1;ratioP1;P2;durP2;ratioP2
7406;SDS011;3745;56.964;24.128;2023-05-27T00:00:21;2.05;;;1.17;;
7406;SDS011;3745;56.964;24.128;2023-05-27T00:02:46;2.45;;;1.20;;
7406;SDS011;3745;56.964;24.128;2023-05-27T00:05:12;2.47;;;1.25;;
7406;SDS011;3745;56.964;24.128;2023-05-27T00:07:38;3.00;;;1.17;;
7406;SDS011;3745;56.964;24.128;2023-05-27T00:10:03;1.05;;;1.05;;
7406;SDS011;3745;56.964;24.128;2023-05-27T00:12:30;3.03;;;1.08;;
7406;SDS011;3745;56.964;24.128;2023-05-27T00:14:55;3.03;;;1.10;;
7406;SDS011;3745;56.964;24.128;2023-05-27T00:17:21;2.65;;;1.08;;
7406;SDS011;3745;56.964;24.128;2023-05-27T00:19:47;1.30;;;0.88;;
7406;SDS011;3745;56.964;24.128;2023-05-27T00:22:15;1.52;;;0.93;;
7406;SDS011;3745;56.964;24.128;2023-05-27T00:24:41;4.78;;;1.10;;
7406;SDS011;3745;56.964;24.128;2023-05-27T00:27:10;3.40;;;1.40;;
7406;SDS011;3745;56.964;24.128;2023-05-27T00:29:38;1.20;;;0.98;;
7406;SDS011;3745;56.964;24.128;2023-05-27T00:32:04;1.08;;;1.00;;
7406;SDS011;3745;56.964;24.128;2023-05-27T00:34:30;2.50;;;1.50;;
7406;SDS011;3745;56.964;24.128;2023-05-27T00:36:59;1.20;;;1.00;;
7406;SDS011;3745;56.964;24.128;2023-05-27T00:39:28;1.33;;;1.13;;
7406;SDS011;3745;56.964;24.128;2023-05-27T00:41:53;2.75;;;0.98;;
7406;SDS011;3745;56.964;24.128;2023-05-27T00:44:19;6.00;;;1.10;;
7406;SDS011;3745;56.964;24.128;2023-05-27T00:46:45;1.42;;;0.82;;
7406;SDS011;3745;56.964;24.128;2023-05-27T00:49:13;2.67;;;1.08;;
7406;SDS011;3745;56.964;24.128;2023-05-27T00:51:39;2.63;;;1.10;;
7406;SDS011;3745;56.964;24.128;2023-05-27T00:54:05;8.45;;;1.52;;
7406;SDS011;3745;56.964;24.128;2023-05-27T00:56:35;2.45;;;1.20;;
7406;SDS011;3745;56.964;24.128;2023-05-27T00:59:02;3.50;;;1.10;;
7406;SDS011;3745;56.964;24.128;2023-05-27T01:01:28;2.15;;;1.13;;
7406;SDS011;3745;56.964;24.128;2023-05-27T01:03:54;5.38;;;1.33;;
7406;SDS011;3745;56.964;24.128;2023-05-27T01:09:17;2.13;;;1.25;;
7406;SDS011;3745;56.964;24.128;2023-05-27T01:11:56;1.58;;;1.00;;
7406;SDS011;3745;56.964;24.128;2023-05-27T01:14:28;1.38;;;0.90;;
7406;SDS011;3745;56.964;24.128;2023-05-27T01:16:58;2.97;;;0.95;;
7406;SDS011;3745;56.964;24.128;2023-05-27T01:19:30;2.88;;;1.02;;
7406;SDS011;3745;56.964;24.128;2023-05-27T01:22:00;4.82;;;1.33;;
7406;SDS011;3745;56.964;24.128;2023-05-27T01:24:27;1.70;;;1.00;;
7406;SDS011;3745;56.964;24.128;2023-05-27T01:26:53;2.58;;;1.20;;
7406;SDS011;3745;56.964;24.128;2023-05-27T01:29:22;1.20;;;0.93;;
7406;SDS011;3745;56.964;24.128;2023-05-27T01:31:56;3.35;;;0.93;;
7406;SDS011;3745;56.964;24.128;2023-05-27T01:34:36;2.92;;;0.95;;
7406;SDS011;3745;56.964;24.128;2023-05-27T01:37:10;0.80;;;0.80;;
7406;SDS011;3745;56.964;24.128;2023-05-27T01:39:39;1.33;;;0.90;;
7406;SDS011;3745;56.964;24.128;2023-05-27T01:42:06;3.33;;;1.13;;
7406;SDS011;3745;56.964;24.128;2023-05-27T01:44:33;5.10;;;1.70;;
7406;SDS011;3745;56.964;24.128;2023-05-27T01:47:00;1.17;;;1.05;;
7406;SDS011;3745;56.964;24.128;2023-05-27T01:49:27;2.30;;;0.90;;
7406;SDS011;3745;56.964;24.128;2023-05-27T01:51:54;1.02;;;0.80;;
7406;SDS011;3745;56.964;24.128;2023-05-27T01:54:20;2.92;;;0.98;;
7406;SDS011;3745;56.964;24.128;2023-05-27T01:56:46;5.80;;;0.98;;
7406;SDS011;3745;56.964;24.128;2023-05-27T01:59:11;2.65;;;1.10;;
7406;SDS011;3745;56.964;24.128;2023-05-27T02:01:37;1.13;;;1.13;;
7406;SDS011;3745;56.964;24.128;2023-05-27T02:04:02;1.98;;;1.00;;
7406;SDS011;3745;56.964;24.128;2023-05-27T02:06:29;2.25;;;1.08;;
7406;SDS011;3745;56.964;24.128;2023-05-27T02:08:55;1.50;;;1.40;;
7406;SDS011;3745;56.964;24.128;2023-05-27T02:11:21;1.60;;;1.10;;
7406;SDS011;3745;56.964;24.128;2023-05-27T02:13:46;2.05;;;1.10;;
7406;SDS011;3745;56.964;24.128;2023-05-27T02:16:12;1.67;;;0.80;;
7406;SDS011;3745;56.964;24.128;2023-05-27T02:18:38;2.42;;;1.00;;
7406;SDS011;3745;56.964;24.128;2023-05-27T02:21:05;3.85;;;1.08;;
7406;SDS011;3745;56.964;24.128;2023-05-27T02:23:35;1.20;;;1.13;;
7406;SDS011;3745;56.964;24.128;2023-05-27T02:26:01;2.08;;;0.80;;
7406;SDS011;3745;56.964;24.128;2023-05-27T02:28:27;1.40;;;0.85;;
7406;SDS011;3745;56.964;24.128;2023-05-27T02:30:53;3.85;;;1.10;;
7406;SDS011;3745;56.964;24.128;2023-05-27T02:33:18;2.28;;;1.10;;
7406;SDS011;3745;56.964;24.128;2023-05-27T02:35:44;1.08;;;1.08;;
7406;SDS011;3745;56.964;24.128;2023-05-27T02:38:10;1.50;;;1.40;;
7406;SDS011;3745;56.964;24.128;2023-05-27T02:40:36;2.65;;;1.00;;
7406;SDS011;3745;56.964;24.128;2023-05-27T02:43:01;2.25;;;1.13;;
7406;SDS011;3745;56.964;24.128;2023-05-27T02:45:27;7.20;;;1.00;;
7406;SDS011;3745;56.964;24.128;2023-05-27T02:47:53;3.80;;;0.93;;
7406;SDS011;3745;56.964;24.128;2023-05-27T02:50:20;2.17;;;1.02;;
7406;SDS011;3745;56.964;24.128;2023-05-27T02:52:46;1.38;;;0.95;;
7406;SDS011;3745;56.964;24.128;2023-05-27T02:55:11;3.63;;;1.77;;
7406;SDS011;3745;56.964;24.128;2023-05-27T02:57:37;3.15;;;1.10;;
7406;SDS011;3745;56.964;24.128;2023-05-27T03:00:03;1.00;;;0.90;;
7406;SDS011;3745;56.964;24.128;2023-05-27T03:02:34;2.78;;;1.02;;
7406;SDS011;3745;56.964;24.128;2023-05-27T03:05:00;1.50;;;0.88;;
7406;SDS011;3745;56.964;24.128;2023-05-27T03:07:26;0.75;;;0.73;;
7406;SDS011;3745;56.964;24.128;2023-05-27T03:09:54;2.90;;;1.20;;
7406;SDS011;3745;56.964;24.128;2023-05-27T03:12:21;2.85;;;1.20;;
7406;SDS011;3745;56.964;24.128;2023-05-27T03:14:47;1.77;;;1.00;;
7406;SDS011;3745;56.964;24.128;2023-05-27T03:17:12;1.58;;;0.80;;
7406;SDS011;3745;56.964;24.128;2023-05-27T03:19:38;2.78;;;0.82;;
7406;SDS011;3745;56.964;24.128;2023-05-27T03:22:04;2.00;;;0.70;;
7406;SDS011;3745;56.964;24.128;2023-05-27T03:24:30;3.40;;;1.25;;
7406;SDS011;3745;56.964;24.128;2023-05-27T03:26:55;2.70;;;1.15;;
7406;SDS011;3745;56.964;24.128;2023-05-27T03:29:21;2.45;;;1.25;;
7406;SDS011;3745;56.964;24.128;2023-05-27T03:31:46;2.90;;;0.88;;
7406;SDS011;3745;56.964;24.128;2023-05-27T03:34:13;3.45;;;1.02;;
7406;SDS011;3745;56.964;24.128;2023-05-27T03:36:39;1.23;;;0.65;;
7406;SDS011;3745;56.964;24.128;2023-05-27T03:39:05;1.65;;;0.80;;
7406;SDS011;3745;56.964;24.128;2023-05-27T03:41:31;3.45;;;1.27;;
7406;SDS011;3745;56.964;24.128;2023-05-27T03:43:56;1.23;;;0.70;;
7406;SDS011;3745;56.964;24.128;2023-05-27T03:46:22;0.88;;;0.88;;
7406;SDS011;3745;56.964;24.128;2023-05-27T03:48:47;2.50;;;0.90;;
7406;SDS011;3745;56.964;24.128;2023-05-27T03:51:13;3.63;;;1.48;;
7406;SDS011;3745;56.964;24.128;2023-05-27T03:53:39;1.27;;;0.88;;
7406;SDS011;3745;56.964;24.128;2023-05-27T03:56:05;1.60;;;1.00;;
7406;SDS011;3745;56.964;24.128;2023-05-27T03:58:31;2.42;;;0.90;;
7406;SDS011;3745;56.964;24.128;2023-05-27T04:00:56;1.73;;;0.90;;
7406;SDS011;3745;56.964;24.128;2023-05-27T04:03:24;2.15;;;1.00;;
7406;SDS011;3745;56.964;24.128;2023-05-27T04:05:51;2.22;;;0.90;;
7406;SDS011;3745;56.964;24.128;2023-05-27T04:08:16;1.08;;;1.00;;
7406;SDS011;3745;56.964;24.128;2023-05-27T04:10:42;1.13;;;0.90;;
7406;SDS011;3745;56.964;24.128;2023-05-27T04:13:07;1.02;;;0.80;;
7406;SDS011;3745;56.964;24.128;2023-05-27T04:15:33;0.95;;;0.88;;
7406;SDS011;3745;56.964;24.128;2023-05-27T04:18:04;1.73;;;0.80;;
7406;SDS011;3745;56.964;24.128;2023-05-27T04:20:44;0.80;;;0.80;;
7406;SDS011;3745;56.964;24.128;2023-05-27T04:23:12;1.65;;;0.88;;
7406;SDS011;3745;56.964;24.128;2023-05-27T04:25:38;1.27;;;0.73;;
7406;SDS011;3745;56.964;24.128;2023-05-27T04:28:04;4.32;;;1.00;;
7406;SDS011;3745;56.964;24.128;2023-05-27T04:30:30;0.70;;;0.70;;
7406;SDS011;3745;56.964;24.128;2023-05-27T04:32:56;3.03;;;0.90;;
7406;SDS011;3745;56.964;24.128;2023-05-27T04:35:22;1.30;;;1.20;;
7406;SDS011;3745;56.964;24.128;2023-05-27T04:37:48;4.20;;;1.10;;
7406;SDS011;3745;56.964;24.128;2023-05-27T04:40:14;4.10;;;1.17;;
7406;SDS011;3745;56.964;24.128;2023-05-27T04:42:42;1.95;;;0.93;;
7406;SDS011;3745;56.964;24.128;2023-05-27T04:45:09;0.95;;;0.63;;
7406;SDS011;3745;56.964;24.128;2023-05-27T04:47:38;0.95;;;0.82;;
7406;SDS011;3745;56.964;24.128;2023-05-27T04:50:06;2.33;;;1.05;;
7406;SDS011;3745;56.964;24.128;2023-05-27T04:52:36;0.70;;;0.70;;
7406;SDS011;3745;56.964;24.128;2023-05-27T04:55:07;1.83;;;0.95;;
7406;SDS011;3745;56.964;24.128;2023-05-27T04:57:34;1.02;;;1.02;;
7406;SDS011;3745;56.964;24.128;2023-05-27T05:00:02;3.60;;;1.40;;
7406;SDS011;3745;56.964;24.128;2023-05-27T05:02:29;3.17;;;1.08;;
7406;SDS011;3745;56.964;24.128;2023-05-27T05:05:02;2.25;;;0.80;;
7406;SDS011;3745;56.964;24.128;2023-05-27T05:07:35;2.97;;;0.80;;
7406;SDS011;3745;56.964;24.128;2023-05-27T05:10:08;5.85;;;0.90;;
7406;SDS011;3745;56.964;24.128;2023-05-27T05:12:36;1.77;;;0.73;;
7406;SDS011;3745;56.964;24.128;2023-05-27T05:15:02;0.93;;;0.90;;
7406;SDS011;3745;56.964;24.128;2023-05-27T05:17:28;1.65;;;1.40;;
7406;SDS011;3745;56.964;24.128;2023-05-27T05:19:54;4.47;;;1.80;;
7406;SDS011;3745;56.964;24.128;2023-05-27T05:22:20;2.75;;;1.83;;
7406;SDS011;3745;56.964;24.128;2023-05-27T05:24:49;2.72;;;1.00;;
7406;SDS011;3745;56.964;24.128;2023-05-27T05:27:15;1.63;;;1.10;;
7406;SDS011;3745;56.964;24.128;2023-05-27T05:29:41;4.25;;;1.27;;
7406;SDS011;3745;56.964;24.128;2023-05-27T05:32:08;2.95;;;1.02;;
7406;SDS011;3745;56.964;24.128;2023-05-27T05:34:36;3.25;;;1.60;;
7406;SDS011;3745;56.964;24.128;2023-05-27T05:37:02;6.30;;;3.45;;
7406;SDS011;3745;56.964;24.128;2023-05-27T05:39:28;4.22;;;2.85;;
7406;SDS011;3745;56.964;24.128;2023-05-27T05:41:54;2.35;;;1.58;;
7406;SDS011;3745;56.964;24.128;2023-05-27T05:44:20;2.15;;;1.92;;
7406;SDS011;3745;56.964;24.128;2023-05-27T05:46:47;3.38;;;3.08;;
7406;SDS011;3745;56.964;24.128;2023-05-27T05:49:13;4.88;;;4.35;;
7406;SDS011;3745;56.964;24.128;2023-05-27T05:51:39;6.47;;;5.75;;
7406;SDS011;3745;56.964;24.128;2023-05-27T05:54:07;7.53;;;6.35;;
7406;SDS011;3745;56.964;24.128;2023-05-27T05:56:33;7.28;;;5.63;;
7406;SDS011;3745;56.964;24.128;2023-05-27T05:58:58;3.83;;;3.00;;
7406;SDS011;3745;56.964;24.128;2023-05-27T06:01:24;4.00;;;3.63;;
7406;SDS011;3745;56.964;24.128;2023-05-27T06:03:52;3.22;;;2.92;;
7406;SDS011;3745;56.964;24.128;2023-05-27T06:06:18;5.07;;;3.42;;
7406;SDS011;3745;56.964;24.128;2023-05-27T06:08:43;3.15;;;2.88;;
7406;SDS011;3745;56.964;24.128;2023-05-27T06:11:10;3.78;;;2.88;;
7406;SDS011;3745;56.964;24.128;2023-05-27T06:13:36;9.65;;;4.10;;
7406;SDS011;3745;56.964;24.128;2023-05-27T06:16:02;4.22;;;3.50;;
7406;SDS011;3745;56.964;24.128;2023-05-27T06:18:27;3.47;;;3.17;;
7406;SDS011;3745;56.964;24.128;2023-05-27T06:20:53;2.85;;;1.88;;
7406;SDS011;3745;56.964;24.128;2023-05-27T06:23:19;3.08;;;2.63;;
7406;SDS011;3745;56.964;24.128;2023-05-27T06:25:44;10.60;;;3.33;;
7406;SDS011;3745;56.964;24.128;2023-05-27T06:28:10;3.20;;;2.83;;
7406;SDS011;3745;56.964;24.128;2023-05-27T06:30:36;3.42;;;2.83;;
7406;SDS011;3745;56.964;24.128;2023-05-27T06:33:03;2.63;;;2.42;;
7406;SDS011;3745;56.964;24.128;2023-05-27T06:35:29;2.58;;;2.38;;
7406;SDS011;3745;56.964;24.128;2023-05-27T06:37:57;1.42;;;1.33;;
7406;SDS011;3745;56.964;24.128;2023-05-27T06:40:24;1.95;;;1.85;;
7406;SDS011;3745;56.964;24.128;2023-05-27T06:42:50;3.20;;;2.90;;
7406;SDS011;3745;56.964;24.128;2023-05-27T06:45:15;5.50;;;3.20;;
7406;SDS011;3745;56.964;24.128;2023-05-27T06:47:41;1.83;;;1.73;;
7406;SDS011;3745;56.964;24.128;2023-05-27T06:50:07;3.08;;;2.00;;
7406;SDS011;3745;56.964;24.128;2023-05-27T06:52:32;4.35;;;2.70;;
7406;SDS011;3745;56.964;24.128;2023-05-27T06:55:06;7.90;;;3.08;;
7406;SDS011;3745;56.964;24.128;2023-05-27T06:57:31;8.23;;;4.30;;
7406;SDS011;3745;56.964;24.128;2023-05-27T06:59:57;5.32;;;3.30;;
7406;SDS011;3745;56.964;24.128;2023-05-27T07:02:23;3.75;;;2.53;;
7406;SDS011;3745;56.964;24.128;2023-05-27T07:04:48;3.60;;;3.30;;
7406;SDS011;3745;56.964;24.128;2023-05-27T07:07:14;3.88;;;2.67;;
7406;SDS011;3745;56.964;24.128;2023-05-27T07:09:39;7.35;;;4.85;;
7406;SDS011;3745;56.964;24.128;2023-05-27T07:12:06;6.97;;;4.35;;
7406;SDS011;3745;56.964;24.128;2023-05-27T07:14:32;4.63;;;1.95;;
7406;SDS011;3745;56.964;24.128;2023-05-27T07:16:57;2.90;;;1.77;;
7406;SDS011;3745;56.964;24.128;2023-05-27T07:19:23;3.10;;;2.45;;
7406;SDS011;3745;56.964;24.128;2023-05-27T07:21:52;1.63;;;1.52;;
7406;SDS011;3745;56.964;24.128;2023-05-27T07:24:17;4.28;;;2.88;;
7406;SDS011;3745;56.964;24.128;2023-05-27T07:26:43;5.20;;;2.63;;
7406;SDS011;3745;56.964;24.128;2023-05-27T07:29:08;4.22;;;2.85;;
7406;SDS011;3745;56.964;24.128;2023-05-27T07:31:34;1.95;;;1.45;;
7406;SDS011;3745;56.964;24.128;2023-05-27T07:34:06;2.70;;;1.48;;
7406;SDS011;3745;56.964;24.128;2023-05-27T07:36:31;2.65;;;1.80;;
7406;SDS011;3745;56.964;24.128;2023-05-27T07:38:57;1.95;;;1.70;;
7406;SDS011;3745;56.964;24.128;2023-05-27T07:41:23;2.60;;;1.40;;
7406;SDS011;3745;56.964;24.128;2023-05-27T07:43:49;1.60;;;1.30;;
7406;SDS011;3745;56.964;24.128;2023-05-27T07:46:18;1.90;;;1.80;;
7406;SDS011;3745;56.964;24.128;2023-05-27T07:48:43;2.63;;;1.42;;
7406;SDS011;3745;56.964;24.128;2023-05-27T07:51:09;1.75;;;1.65;;
7406;SDS011;3745;56.964;24.128;2023-05-27T07:53:35;2.80;;;2.60;;
7406;SDS011;3745;56.964;24.128;2023-05-27T07:56:04;2.10;;;2.00;;
7406;SDS011;3745;56.964;24.128;2023-05-27T07:58:30;2.25;;;1.30;;
7406;SDS011;3745;56.964;24.128;2023-05-27T08:00:56;4.43;;;3.00;;
7406;SDS011;3745;56.964;24.128;2023-05-27T08:03:21;5.07;;;3.60;;
7406;SDS011;3745;56.964;24.128;2023-05-27T08:05:47;1.52;;;1.50;;
7406;SDS011;3745;56.964;24.128;2023-05-27T08:08:12;1.60;;;1.02;;
7406;SDS011;3745;56.964;24.128;2023-05-27T08:10:38;2.45;;;1.85;;
7406;SDS011;3745;56.964;24.128;2023-05-27T08:13:12;2.45;;;2.08;;
7406;SDS011;3745;56.964;24.128;2023-05-27T08:15:38;1.30;;;1.20;;
7406;SDS011;3745;56.964;24.128;2023-05-27T08:18:04;4.13;;;1.70;;
7406;SDS011;3745;56.964;24.128;2023-05-27T08:20:29;2.58;;;2.40;;
7406;SDS011;3745;56.964;24.128;2023-05-27T08:22:55;4.28;;;2.78;;
7406;SDS011;3745;56.964;24.128;2023-05-27T08:25:21;3.22;;;2.00;;
7406;SDS011;3745;56.964;24.128;2023-05-27T08:27:50;1.83;;;1.73;;
7406;SDS011;3745;56.964;24.128;2023-05-27T08:30:18;3.30;;;1.25;;
7406;SDS011;3745;56.964;24.128;2023-05-27T08:32:44;3.33;;;1.80;;
7406;SDS011;3745;56.964;24.128;2023-05-27T08:35:10;2.10;;;1.90;;
7406;SDS011;3745;56.964;24.128;2023-05-27T08:37:36;3.28;;;1.25;;
7406;SDS011;3745;56.964;24.128;2023-05-27T08:40:35;2.78;;;0.80;;
7406;SDS011;3745;56.964;24.128;2023-05-27T08:42:55;1.23;;;1.13;;
7406;SDS011;3745;56.964;24.128;2023-05-27T08:45:21;0.60;;;0.60;;
7406;SDS011;3745;56.964;24.128;2023-05-27T08:47:47;1.17;;;1.10;;
7406;SDS011;3745;56.964;24.128;2023-05-27T08:50:14;1.00;;;1.00;;
7406;SDS011;3745;56.964;24.128;2023-05-27T08:52:45;0.93;;;0.93;;
7406;SDS011;3745;56.964;24.128;2023-05-27T08:55:14;1.02;;;0.88;;
7406;SDS011;3745;56.964;24.128;2023-05-27T08:57:46;0.98;;;0.93;;
7406;SDS011;3745;56.964;24.128;2023-05-27T09:00:18;2.92;;;1.70;;
7406;SDS011;3745;56.964;24.128;2023-05-27T09:02:44;2.70;;;2.50;;
7406;SDS011;3745;56.964;24.128;2023-05-27T09:05:10;2.20;;;2.08;;
7406;SDS011;3745;56.964;24.128;2023-05-27T09:07:39;1.13;;;1.13;;
7406;SDS011;3745;56.964;24.128;2023-05-27T09:10:05;0.80;;;0.80;;
7406;SDS011;3745;56.964;24.128;2023-05-27T09:12:35;2.42;;;0.90;;
7406;SDS011;3745;56.964;24.128;2023-05-27T09:15:10;1.45;;;0.52;;
7406;SDS011;3745;56.964;24.128;2023-05-27T09:17:40;3.10;;;1.40;;
7406;SDS011;3745;56.964;24.128;2023-05-27T09:20:10;1.63;;;1.20;;
7406;SDS011;3745;56.964;24.128;2023-05-27T09:22:37;1.00;;;1.00;;
7406;SDS011;3745;56.964;24.128;2023-05-27T09:25:04;1.10;;;1.00;;
7406;SDS011;3745;56.964;24.128;2023-05-27T09:27:33;2.35;;;2.25;;
7406;SDS011;3745;56.964;24.128;2023-05-27T09:30:06;2.63;;;2.42;;
7406;SDS011;3745;56.964;24.128;2023-05-27T09:32:35;1.30;;;1.30;;
7406;SDS011;3745;56.964;24.128;2023-05-27T09:35:00;1.90;;;0.90;;
7406;SDS011;3745;56.964;24.128;2023-05-27T09:37:33;1.67;;;0.70;;
7406;SDS011;3745;56.964;24.128;2023-05-27T09:40:12;1.52;;;0.90;;
7406;SDS011;3745;56.964;24.128;2023-05-27T09:45:18;2.47;;;2.20;;
7406;SDS011;3745;56.964;24.128;2023-05-27T09:47:52;1.80;;;1.70;;
7406;SDS011;3745;56.964;24.128;2023-05-27T09:50:27;1.92;;;1.83;;
7406;SDS011;3745;56.964;24.128;2023-05-27T09:52:53;3.42;;;2.70;;
7406;SDS011;3745;56.964;24.128;2023-05-27T09:55:23;1.75;;;1.75;;
7406;SDS011;3745;56.964;24.128;2023-05-27T09:57:49;2.33;;;2.10;;
7406;SDS011;3745;56.964;24.128;2023-05-27T10:00:16;3.22;;;2.40;;
7406;SDS011;3745;56.964;24.128;2023-05-27T10:02:48;2.95;;;2.70;;
7406;SDS011;3745;56.964;24.128;2023-05-27T10:05:15;2.45;;;1.70;;
7406;SDS011;3745;56.964;24.128;2023-05-27T10:07:47;1.90;;;1.60;;
7406;SDS011;3745;56.964;24.128;2023-05-27T10:10:17;2.80;;;1.60;;
7406;SDS011;3745;56.964;24.128;2023-05-27T10:12:46;4.53;;;2.38;;
7406;SDS011;3745;56.964;24.128;2023-05-27T10:15:27;3.50;;;1.45;;
7406;SDS011;3745;56.964;24.128;2023-05-27T10:17:55;1.70;;;1.60;;
7406;SDS011;3745;56.964;24.128;2023-05-27T10:20:32;2.60;;;1.05;;
7406;SDS011;3745;56.964;24.128;2023-05-27T10:25:50;1.65;;;1.55;;
7406;SDS011;3745;56.964;24.128;2023-05-27T10:30:53;1.65;;;0.88;;
7406;SDS011;3745;56.964;24.128;2023-05-27T10:33:30;0.93;;;0.80;;
7406;SDS011;3745;56.964;24.128;2023-05-27T10:36:14;1.77;;;1.00;;
7406;SDS011;3745;56.964;24.128;2023-05-27T10:38:42;2.75;;;2.53;;
7406;SDS011;3745;56.964;24.128;2023-05-27T10:41:19;3.10;;;2.05;;
7406;SDS011;3745;56.964;24.128;2023-05-27T10:43:55;1.85;;;1.75;;
7406;SDS011;3745;56.964;24.128;2023-05-27T10:46:25;3.10;;;1.63;;
7406;SDS011;3745;56.964;24.128;2023-05-27T10:48:54;1.88;;;0.95;;
7406;SDS011;3745;56.964;24.128;2023-05-27T10:51:19;5.13;;;2.20;;
7406;SDS011;3745;56.964;24.128;2023-05-27T10:54:02;4.63;;;1.38;;
7406;SDS011;3745;56.964;24.128;2023-05-27T10:56:32;2.72;;;1.17;;
7406;SDS011;3745;56.964;24.128;2023-05-27T10:58:57;1.60;;;0.85;;
7406;SDS011;3745;56.964;24.128;2023-05-27T11:01:31;2.17;;;1.30;;
7406;SDS011;3745;56.964;24.128;2023-05-27T11:03:58;1.10;;;1.10;;
7406;SDS011;3745;56.964;24.128;2023-05-27T11:06:24;4.07;;;1.13;;
7406;SDS011;3745;56.964;24.128;2023-05-27T11:08:52;0.75;;;0.75;;
7406;SDS011;3745;56.964;24.128;2023-05-27T11:11:18;1.08;;;0.60;;
7406;SDS011;3745;56.964;24.128;2023-05-27T11:13:44;3.17;;;1.27;;
7406;SDS011;3745;56.964;24.128;2023-05-27T11:16:11;1.40;;;1.40;;
7406;SDS011;3745;56.964;24.128;2023-05-27T11:18:39;1.23;;;0.80;;
7406;SDS011;3745;56.964;24.128;2023-05-27T11:21:07;1.30;;;0.70;;
7406;SDS011;3745;56.964;24.128;2023-05-27T11:23:34;0.88;;;0.88;;
7406;SDS011;3745;56.964;24.128;2023-05-27T11:26:01;0.90;;;0.90;;
7406;SDS011;3745;56.964;24.128;2023-05-27T11:28:29;0.90;;;0.85;;
7406;SDS011;3745;56.964;24.128;2023-05-27T11:31:01;3.15;;;0.88;;
7406;SDS011;3745;56.964;24.128;2023-05-27T11:33:32;1.00;;;1.00;;
7406;SDS011;3745;56.964;24.128;2023-05-27T11:36:05;5.78;;;2.97;;
7406;SDS011;3745;56.964;24.128;2023-05-27T11:38:38;4.25;;;3.20;;
7406;SDS011;3745;56.964;24.128;2023-05-27T11:41:11;4.72;;;2.70;;
7406;SDS011;3745;56.964;24.128;2023-05-27T11:43:36;2.55;;;2.15;;
7406;SDS011;3745;56.964;24.128;2023-05-27T11:46:11;3.92;;;1.70;;
7406;SDS011;3745;56.964;24.128;2023-05-27T11:48:39;6.90;;;2.00;;
7406;SDS011;3745;56.964;24.128;2023-05-27T11:51:05;3.20;;;1.20;;
7406;SDS011;3745;56.964;24.128;2023-05-27T11:53:30;0.88;;;0.80;;
7406;SDS011;3745;56.964;24.128;2023-05-27T11:55:56;4.25;;;1.92;;
7406;SDS011;3745;56.964;24.128;2023-05-27T11:58:25;3.17;;;2.90;;
7406;SDS011;3745;56.964;24.128;2023-05-27T12:00:50;1.63;;;1.52;;
7406;SDS011;3745;56.964;24.128;2023-05-27T12:03:16;2.85;;;1.27;;
7406;SDS011;3745;56.964;24.128;2023-05-27T12:05:42;5.15;;;1.60;;
7406;SDS011;3745;56.964;24.128;2023-05-27T12:08:07;1.75;;;1.05;;
7406;SDS011;3745;56.964;24.128;2023-05-27T12:10:33;2.38;;;0.88;;
7406;SDS011;3745;56.964;24.128;2023-05-27T12:13:05;1.00;;;1.00;;
7406;SDS011;3745;56.964;24.128;2023-05-27T12:15:31;2.40;;;0.90;;
7406;SDS011;3745;56.964;24.128;2023-05-27T12:17:57;5.53;;;1.20;;
7406;SDS011;3745;56.964;24.128;2023-05-27T12:20:23;2.20;;;0.90;;
7406;SDS011;3745;56.964;24.128;2023-05-27T12:22:52;2.30;;;1.23;;
7406;SDS011;3745;56.964;24.128;2023-05-27T12:25:19;2.47;;;0.70;;
7406;SDS011;3745;56.964;24.128;2023-05-27T12:27:44;0.93;;;0.93;;
7406;SDS011;3745;56.964;24.128;2023-05-27T12:30:10;0.80;;;0.80;;
7406;SDS011;3745;56.964;24.128;2023-05-27T12:32:40;0.95;;;0.80;;
7406;SDS011;3745;56.964;24.128;2023-05-27T12:35:07;0.80;;;0.80;;
7406;SDS011;3745;56.964;24.128;2023-05-27T12:37:33;0.88;;;0.85;;
7406;SDS011;3745;56.964;24.128;2023-05-27T12:39:58;2.97;;;0.88;;
7406;SDS011;3745;56.964;24.128;2023-05-27T12:42:27;2.85;;;0.80;;
7406;SDS011;3745;56.964;24.128;2023-05-27T12:44:53;2.40;;;0.80;;
7406;SDS011;3745;56.964;24.128;2023-05-27T12:47:19;1.60;;;0.60;;
7406;SDS011;3745;56.964;24.128;2023-05-27T12:49:44;0.82;;;0.82;;
7406;SDS011;3745;56.964;24.128;2023-05-27T12:52:10;1.40;;;0.70;;
7406;SDS011;3745;56.964;24.128;2023-05-27T12:54:36;1.60;;;0.80;;
7406;SDS011;3745;56.964;24.128;2023-05-27T12:57:01;1.48;;;0.82;;
7406;SDS011;3745;56.964;24.128;2023-05-27T12:59:30;2.40;;;1.05;;
7406;SDS011;3745;56.964;24.128;2023-05-27T13:01:59;0.93;;;0.70;;
7406;SDS011;3745;56.964;24.128;2023-05-27T13:04:25;1.30;;;0.77;;
7406;SDS011;3745;56.964;24.128;2023-05-27T13:06:53;0.55;;;0.55;;
7406;SDS011;3745;56.964;24.128;2023-05-27T13:09:19;1.50;;;0.77;;
7406;SDS011;3745;56.964;24.128;2023-05-27T13:11:45;2.22;;;0.70;;
7406;SDS011;3745;56.964;24.128;2023-05-27T13:14:11;0.82;;;0.70;;
7406;SDS011;3745;56.964;24.128;2023-05-27T13:16:39;0.82;;;0.60;;
7406;SDS011;3745;56.964;24.128;2023-05-27T13:19:05;1.27;;;0.60;;
7406;SDS011;3745;56.964;24.128;2023-05-27T13:21:32;1.15;;;0.85;;
7406;SDS011;3745;56.964;24.128;2023-05-27T13:23:57;3.30;;;1.02;;
7406;SDS011;3745;56.964;24.128;2023-05-27T13:26:23;4.05;;;0.85;;
7406;SDS011;3745;56.964;24.128;2023-05-27T13:28:49;0.50;;;0.50;;
7406;SDS011;3745;56.964;24.128;2023-05-27T13:31:17;1.13;;;0.90;;
7406;SDS011;3745;56.964;24.128;2023-05-27T13:33:45;1.80;;;0.60;;
7406;SDS011;3745;56.964;24.128;2023-05-27T13:36:11;0.85;;;0.85;;
7406;SDS011;3745;56.964;24.128;2023-05-27T13:38:38;1.95;;;0.85;;
7406;SDS011;3745;56.964;24.128;2023-05-27T13:41:04;1.05;;;1.02;;
7406;SDS011;3745;56.964;24.128;2023-05-27T13:43:30;1.73;;;0.60;;
7406;SDS011;3745;56.964;24.128;2023-05-27T13:45:56;1.15;;;0.93;;
7406;SDS011;3745;56.964;24.128;2023-05-27T13:48:25;2.47;;;0.70;;
7406;SDS011;3745;56.964;24.128;2023-05-27T13:50:54;1.50;;;0.90;;
7406;SDS011;3745;56.964;24.128;2023-05-27T13:53:19;1.05;;;0.85;;
7406;SDS011;3745;56.964;24.128;2023-05-27T13:55:45;0.60;;;0.60;;
7406;SDS011;3745;56.964;24.128;2023-05-27T13:58:10;0.85;;;0.70;;
7406;SDS011;3745;56.964;24.128;2023-05-27T14:00:36;2.50;;;1.00;;
7406;SDS011;3745;56.964;24.128;2023-05-27T14:03:02;1.05;;;0.70;;
7406;SDS011;3745;56.964;24.128;2023-05-27T14:05:27;1.15;;;0.90;;
7406;SDS011;3745;56.964;24.128;2023-05-27T14:07:53;1.58;;;0.82;;
7406;SDS011;3745;56.964;24.128;2023-05-27T14:10:19;2.30;;;1.13;;
7406;SDS011;3745;56.964;24.128;2023-05-27T14:12:45;0.88;;;0.88;;
7406;SDS011;3745;56.964;24.128;2023-05-27T14:15:11;0.65;;;0.57;;
7406;SDS011;3745;56.964;24.128;2023-05-27T14:17:40;1.00;;;0.90;;
7406;SDS011;3745;56.964;24.128;2023-05-27T14:20:05;0.80;;;0.80;;
7406;SDS011;3745;56.964;24.128;2023-05-27T14:22:35;3.08;;;1.00;;
7406;SDS011;3745;56.964;24.128;2023-05-27T14:25:04;3.38;;;0.85;;
7406;SDS011;3745;56.964;24.128;2023-05-27T14:27:33;1.45;;;1.05;;
7406;SDS011;3745;56.964;24.128;2023-05-27T14:30:02;2.92;;;0.70;;
7406;SDS011;3745;56.964;24.128;2023-05-27T14:32:30;0.90;;;0.90;;
7406;SDS011;3745;56.964;24.128;2023-05-27T14:34:55;1.92;;;1.02;;
7406;SDS011;3745;56.964;24.128;2023-05-27T14:37:24;1.63;;;0.95;;
7406;SDS011;3745;56.964;24.128;2023-05-27T14:39:51;4.35;;;1.33;;
7406;SDS011;3745;56.964;24.128;2023-05-27T14:42:26;2.22;;;1.05;;
7406;SDS011;3745;56.964;24.128;2023-05-27T14:44:57;0.85;;;0.85;;
7406;SDS011;3745;56.964;24.128;2023-05-27T14:47:23;0.75;;;0.70;;
7406;SDS011;3745;56.964;24.128;2023-05-27T14:49:48;0.70;;;0.70;;
7406;SDS011;3745;56.964;24.128;2023-05-27T14:52:14;1.00;;;1.00;;
7406;SDS011;3745;56.964;24.128;2023-05-27T14:54:39;1.10;;;0.98;;
7406;SDS011;3745;56.964;24.128;2023-05-27T14:57:05;1.10;;;1.02;;
7406;SDS011;3745;56.964;24.128;2023-05-27T14:59:30;1.00;;;0.80;;
7406;SDS011;3745;56.964;24.128;2023-05-27T15:01:56;0.73;;;0.73;;
7406;SDS011;3745;56.964;24.128;2023-05-27T15:04:21;1.95;;;0.80;;
7406;SDS011;3745;56.964;24.128;2023-05-27T15:06:47;2.15;;;0.93;;
7406;SDS011;3745;56.964;24.128;2023-05-27T15:09:16;1.20;;;0.90;;
7406;SDS011;3745;56.964;24.128;2023-05-27T15:11:42;0.70;;;0.70;;